Time;durP1;ratioP1;P1;durP2;ratioP2;P2;SDS_P1;SDS_P2;PMS_P1;PMS_P2;Temp;Humidity;BMP_temperature;BMP_pressure;BME280_temperature;BME280_humidity;BME280_pressure;Samples;Min_cycle;Max_cycle;Signal;HPM_P1;HPM_P2
2021/04/26 00:02:44;;;;;;;1.47;1.10;;;;;;;2.09;62.95;98965.95;3899582;74;43468;-28
2021/04/26 00:07:50;;;;;;;2.23;1.20;;;;;;;2.04;62.71;98960.08;3918589;74;44098;-28
2021/04/26 00:12:55;;;;;;;1.20;1.10;;;;;;;1.98;62.76;98947.16;3915981;74;44429;-27
2021/04/26 00:18:03;;;;;;;1.40;0.97;;;;;;;1.97;62.63;98949.43;3916570;75;44118;-28
2021/04/26 00:23:09;;;;;;;1.23;0.93;;;;;;;1.94;62.05;98941.67;3903501;75;43342;-26
2021/04/26 00:28:15;;;;;;;3.20;1.10;;;;;;;1.94;61.68;98941.67;3912337;74;44089;-26
2021/04/26 00:33:21;;;;;;;4.10;1.00;;;;;;;1.83;62.03;98953.77;3846819;75;43296;-27
2021/04/26 00:38:27;;;;;;;1.43;0.90;;;;;;;1.80;61.92;98965.94;3822778;75;44198;-26
2021/04/26 00:43:33;;;;;;;3.57;1.10;;;;;;;1.73;62.00;98963.25;3836827;75;43386;-27
2021/04/26 00:48:38;;;;;;;1.30;1.00;;;;;;;1.70;61.81;98963.45;3832072;76;44610;-28
2021/04/26 00:53:44;;;;;;;2.03;1.07;;;;;;;1.66;61.90;98964.58;3823253;76;44050;-26
2021/04/26 00:58:52;;;;;;;2.67;1.00;;;;;;;1.60;61.37;98967.58;3829216;75;43726;-26
2021/04/26 01:03:58;;;;;;;3.33;1.13;;;;;;;1.62;61.04;98974.98;3840020;77;43457;-26
2021/04/26 01:09:05;;;;;;;1.23;1.10;;;;;;;1.47;62.97;98972.77;3821525;75;44002;-27
2021/04/26 01:14:26;;;;;;;1.47;1.20;;;;;;;1.12;66.65;98965.89;3843211;76;26265;-26
2021/04/26 01:19:47;;;;;;;2.40;1.13;;;;;;;0.87;70.02;98973.95;3822957;77;44010;-27
2021/04/26 01:25:04;;;;;;;2.90;1.03;;;;;;;0.63;71.97;98972.66;3835070;77;43749;-28
2021/04/26 01:30:14;;;;;;;2.67;1.20;;;;;;;0.48;72.55;98973.88;3829035;77;43685;-27
2021/04/26 01:35:38;;;;;;;1.43;1.10;;;;;;;0.30;74.21;98967.78;3825487;77;26834;-27
2021/04/26 01:40:47;;;;;;;1.10;1.00;;;;;;;0.16;76.74;98961.91;3820670;75;43356;-27
2021/04/26 01:45:56;;;;;;;1.70;1.17;;;;;;;-0.01;77.70;98968.95;3819278;77;43406;-27
2021/04/26 01:51:06;;;;;;;1.63;1.13;;;;;;;-0.10;78.81;98966.79;3853299;77;44082;-27
2021/04/26 01:56:15;;;;;;;1.87;1.20;;;;;;;-0.17;78.19;98958.76;3828124;75;44136;-26
2021/04/26 02:01:24;;;;;;;6.53;1.27;;;;;;;-0.27;78.34;98950.91;3824492;77;26685;-26
2021/04/26 02:06:36;;;;;;;3.03;1.23;;;;;;;-0.31;78.15;98946.25;3819105;77;26925;-26
2021/04/26 02:11:45;;;;;;;1.73;1.20;;;;;;;-0.46;79.29;98946.58;3819044;77;27735;-26
2021/04/26 02:16:53;;;;;;;2.13;1.30;;;;;;;-0.45;78.90;98936.83;3824844;75;44351;-26
2021/04/26 02:21:59;;;;;;;2.50;1.10;;;;;;;-0.49;78.90;98933.48;3831324;77;43675;-26
2021/04/26 02:27:08;;;;;;;2.47;1.50;;;;;;;-0.54;78.88;98927.59;3835992;75;26304;-26
2021/04/26 02:32:17;;;;;;;1.57;1.20;;;;;;;-0.66;81.00;98925.09;3833896;75;43850;-26
2021/04/26 02:37:28;;;;;;;2.47;1.30;;;;;;;-0.76;82.68;98916.75;3894377;75;26341;-27
2021/04/26 02:42:36;;;;;;;1.63;1.20;;;;;;;-0.82;82.94;98905.17;3889964;75;44032;-25
2021/04/26 02:47:45;;;;;;;1.63;1.30;;;;;;;-0.90;83.61;98901.58;3884949;74;43358;-25
2021/04/26 02:52:53;;;;;;;2.40;1.20;;;;;;;-1.00;86.45;98898.53;3889519;75;26359;-25
2021/04/26 02:58:00;;;;;;;2.07;1.30;;;;;;;-1.08;86.94;98891.45;3895069;75;43441;-25
2021/04/26 03:03:07;;;;;;;2.57;1.17;;;;;;;-1.13;87.26;98891.69;3893143;75;44080;-25
2021/04/26 03:08:14;;;;;;;2.47;1.20;;;;;;;-1.17;87.68;98884.83;3865912;75;43761;-25
2021/04/26 03:13:22;;;;;;;1.97;1.30;;;;;;;-1.28;89.28;98888.02;3894821;74;43666;-26
2021/04/26 03:18:28;;;;;;;3.10;1.60;;;;;;;-1.35;90.36;98878.66;3902283;75;44381;-26
2021/04/26 03:23:38;;;;;;;3.33;1.30;;;;;;;-1.44;91.99;98871.17;3887379;74;44071;-26
2021/04/26 03:28:46;;;;;;;2.97;1.23;;;;;;;-1.53;94.04;98869.86;3880494;75;42668;-26
2021/04/26 03:33:53;;;;;;;2.50;1.30;;;;;;;-1.59;93.00;98868.34;3897677;75;43499;-26
2021/04/26 03:39:00;;;;;;;3.37;1.23;;;;;;;-1.69;95.47;98868.39;3886568;75;43995;-26
2021/04/26 03:44:08;;;;;;;1.80;1.30;;;;;;;-1.66;93.45;98862.12;3899514;75;44162;-26
2021/04/26 03:49:17;;;;;;;1.37;1.03;;;;;;;-1.67;93.69;98858.61;3889767;75;44651;-26
2021/04/26 03:54:27;;;;;;;2.80;1.37;;;;;;;-1.75;93.46;98856.81;3858140;74;26727;-26
2021/04/26 03:59:34;;;;;;;3.70;1.20;;;;;;;-1.88;93.87;98850.78;3902475;75;44118;-26
2021/04/26 04:04:41;;;;;;;4.30;1.60;;;;;;;-1.84;93.67;98843.56;3892186;75;44578;-26
2021/04/26 04:10:07;;;;;;;1.63;1.20;;;;;;;-1.83;94.94;98851.05;3889846;75;26854;-26
2021/04/26 04:15:17;;;;;;;2.57;1.37;;;;;;;-1.83;91.97;98841.32;3894938;75;26277;-26
2021/04/26 04:20:23;;;;;;;1.70;1.10;;;;;;;-1.84;93.43;98843.56;3895892;75;44502;-26
2021/04/26 04:25:30;;;;;;;2.27;1.10;;;;;;;-1.80;92.00;98844.27;3886244;74;43678;-26
2021/04/26 04:30:36;;;;;;;1.77;1.27;;;;;;;-1.76;89.57;98834.80;3883294;75;43683;-26
2021/04/26 04:36:01;;;;;;;1.93;1.00;;;;;;;-1.74;89.25;98829.47;3895834;75;27172;-26
2021/04/26 04:41:21;;;;;;;2.17;1.10;;;;;;;-1.75;89.94;98839.64;3860253;75;26344;-26
2021/04/26 04:46:27;;;;;;;1.90;1.03;;;;;;;-1.78;90.60;98837.14;3885015;75;43413;-26
2021/04/26 04:51:35;;;;;;;3.33;1.30;;;;;;;-1.85;91.91;98836.57;3900572;74;27339;-26
2021/04/26 04:56:43;;;;;;;1.40;1.00;;;;;;;-1.84;92.73;98829.52;3900173;74;26356;-25
2021/04/26 05:01:49;;;;;;;3.73;1.10;;;;;;;-1.74;90.16;98827.67;3745175;77;43710;-26
2021/04/26 05:07:13;;;;;;;2.00;1.10;;;;;;;-1.69;90.62;98824.80;3881059;75;26845;-26
2021/04/26 05:12:36;;;;;;;1.87;1.20;;;;;;;-1.66;90.11;98829.95;3880641;75;26692;-26
2021/04/26 05:18:03;;;;;;;1.93;1.20;;;;;;;-1.62;90.00;98825.36;3886802;75;27306;-26
2021/04/26 05:23:12;;;;;;;1.80;1.07;;;;;;;-1.55;90.52;98826.31;3887617;75;44419;-26
2021/04/26 05:28:18;;;;;;;1.97;1.20;;;;;;;-1.44;89.29;98831.53;3892483;74;44098;-26
2021/04/26 05:33:26;;;;;;;3.47;1.10;;;;;;;-1.33;89.38;98825.25;3896525;74;26837;-26
2021/04/26 05:38:33;;;;;;;1.90;0.87;;;;;;;-1.21;88.36;98829.53;3892977;75;26435;-26
2021/04/26 05:43:41;;;;;;;2.90;1.30;;;;;;;-1.11;88.28;98829.02;3882930;75;26487;-26
2021/04/26 05:48:47;;;;;;;1.67;1.27;;;;;;;-0.97;87.84;98823.49;3901031;75;43416;-26
2021/04/26 05:53:53;;;;;;;3.20;1.83;;;;;;;-0.84;87.14;98825.90;3911526;75;44042;-26
2021/04/26 05:59:00;;;;;;;8.60;1.60;;;;;;;-0.68;84.16;98825.95;3890408;75;43695;-26
2021/04/26 06:04:07;;;;;;;3.30;1.60;;;;;;;-0.47;82.69;98828.39;3893137;74;44137;-26
2021/04/26 06:09:13;;;;;;;4.23;1.60;;;;;;;-0.33;82.21;98829.84;3898045;75;43480;-26
2021/04/26 06:14:20;;;;;;;2.17;1.40;;;;;;;-0.14;83.49;98820.89;3890273;75;43345;-26
2021/04/26 06:19:27;;;;;;;3.80;2.50;;;;;;;0.02;83.53;98824.03;3889487;75;43333;-26
2021/04/26 06:24:33;;;;;;;9.27;3.40;;;;;;;0.23;88.38;98828.13;3883512;75;44040;-26
2021/04/26 06:29:39;;;;;;;6.57;2.77;;;;;;;0.43;95.85;98823.03;3880376;74;43282;-27
2021/04/26 06:34:45;;;;;;;3.23;2.20;;;;;;;0.58;93.40;98822.63;3883533;75;42910;-26
2021/04/26 06:39:51;;;;;;;4.00;2.00;;;;;;;0.84;89.80;98820.72;3880142;76;43685;-26
2021/04/26 06:44:57;;;;;;;3.87;1.43;;;;;;;1.11;83.99;98822.70;3875781;75;44440;-27
2021/04/26 06:50:03;;;;;;;2.57;1.60;;;;;;;1.33;78.03;98819.61;3882231;75;44036;-26
2021/04/26 06:55:11;;;;;;;4.30;1.60;;;;;;;1.64;75.41;98811.09;3882433;75;43698;-26
2021/04/26 07:00:20;;;;;;;1.97;1.23;;;;;;;2.01;75.21;98812.77;3886158;75;43725;-26
2021/04/26 07:05:27;;;;;;;3.87;1.60;;;;;;;2.35;75.49;98814.59;3877349;75;44081;-26
2021/04/26 07:10:33;;;;;;;2.73;1.40;;;;;;;2.67;71.73;98814.77;3882947;75;43704;-26
2021/04/26 07:15:39;;;;;;;2.13;0.93;;;;;;;2.82;69.62;98812.89;3875388;76;43384;-26
2021/04/26 07:20:45;;;;;;;1.47;1.07;;;;;;;3.16;62.54;98811.94;3724906;75;43350;-26
2021/04/26 07:25:51;;;;;;;1.80;1.20;;;;;;;3.65;59.92;98805.89;3681788;79;43405;-26
2021/04/26 07:30:57;;;;;;;1.90;0.80;;;;;;;3.93;56.51;98815.06;3682387;79;44640;-26
2021/04/26 07:36:04;;;;;;;1.73;0.80;;;;;;;4.35;52.72;98810.75;3597157;81;44130;-26
2021/04/26 07:41:10;;;;;;;1.37;0.80;;;;;;;4.76;51.60;98812.19;3795369;77;42967;-25
2021/04/26 07:46:16;;;;;;;1.40;0.80;;;;;;;5.01;48.94;98812.52;3792384;78;73342;-26
2021/04/26 07:51:22;;;;;;;1.80;0.73;;;;;;;5.26;49.06;98802.63;3734631;78;43710;-26
2021/04/26 07:56:27;;;;;;;1.47;0.80;;;;;;;5.30;48.99;98807.25;3735009;78;43698;-26
2021/04/26 08:01:35;;;;;;;2.23;0.93;;;;;;;5.52;49.70;98803.28;3795149;77;44030;-26
2021/04/26 08:06:42;;;;;;;1.87;0.63;;;;;;;5.71;50.42;98804.50;3792864;77;43758;-26
2021/04/26 08:11:51;;;;;;;1.33;0.80;;;;;;;5.78;49.97;98804.39;3730219;78;73581;-26
2021/04/26 08:17:04;;;;;;;1.65;0.90;;;;;;;5.84;48.05;98797.71;3734755;78;43459;-26
2021/04/26 08:22:11;;;;;;;1.20;0.90;;;;;;;6.01;48.51;98799.91;3730517;78;43687;-27
2021/04/26 08:27:18;;;;;;;1.90;1.10;;;;;;;6.07;49.57;98800.40;3799362;77;44017;-26
2021/04/26 08:32:24;;;;;;;1.40;1.00;;;;;;;6.21;48.95;98804.16;3793667;78;43733;-26
2021/04/26 08:37:31;;;;;;;2.00;1.00;;;;;;;6.28;47.23;98796.48;3710463;79;44034;-26
2021/04/26 08:42:37;;;;;;;2.97;1.10;;;;;;;6.47;48.71;98795.34;3772329;77;44278;-26
2021/04/26 08:47:45;;;;;;;1.03;0.93;;;;;;;6.54;46.12;98796.16;3708266;78;44619;-26
2021/04/26 08:52:51;;;;;;;2.13;1.30;;;;;;;6.45;47.43;98798.63;3765282;78;43346;-28
2021/04/26 08:57:57;;;;;;;1.87;1.17;;;;;;;6.57;47.06;98791.42;3707144;78;44082;-26
2021/04/26 09:03:06;;;;;;;2.00;1.10;;;;;;;6.77;46.20;98792.92;3771632;78;44015;-26
2021/04/26 09:08:13;;;;;;;1.90;1.10;;;;;;;6.82;47.50;98786.68;3778128;77;44015;-26
2021/04/26 09:13:46;;;;;;;3.08;1.40;;;;;;;7.18;46.89;98775.68;3765835;77;44880;-27
2021/04/26 09:18:55;;;;;;;3.90;1.30;;;;;;;7.20;43.68;98776.41;3704169;78;43715;-26
2021/04/26 09:24:16;;;;;;;2.47;1.20;;;;;;;7.49;45.69;98764.98;3765933;77;73108;-26
2021/04/26 09:29:24;;;;;;;4.62;1.30;;;;;;;7.40;44.77;98760.79;3777229;77;43678;-26
2021/04/26 09:34:35;;;;;;;2.42;1.10;;;;;;;7.68;45.74;98766.44;3774196;77;44008;-27
2021/04/26 09:39:56;;;;;;;1.20;1.07;;;;;;;7.88;46.27;98753.09;3733226;78;43395;-28
2021/04/26 09:45:28;;;;;;;2.27;1.40;;;;;;;7.93;45.10;98760.27;3734036;78;43725;-28
2021/04/26 09:50:33;;;;;;;2.25;1.20;;;;;;;8.11;45.72;98751.54;3735347;78;44091;-27
2021/04/26 09:55:39;;;;;;;2.63;1.40;;;;;;;8.24;45.53;98744.56;3728770;78;73394;-27
2021/04/26 10:00:47;;;;;;;2.12;1.32;;;;;;;8.52;45.51;98732.22;3731591;78;44452;-27
2021/04/26 10:05:56;;;;;;;3.40;1.40;;;;;;;8.16;43.71;98723.30;3730509;79;43349;-27
2021/04/26 10:11:03;;;;;;;3.35;1.22;;;;;;;8.15;45.31;98724.28;3732625;78;43381;-27
2021/04/26 10:16:14;;;;;;;2.52;1.35;;;;;;;8.10;43.57;98721.66;3730419;79;44144;-27
2021/04/26 10:21:34;;;;;;;3.67;1.30;;;;;;;8.29;44.58;98714.14;3734747;78;44189;-29
2021/04/26 10:26:44;;;;;;;1.67;1.35;;;;;;;7.98;44.21;98712.39;3731314;78;43999;-26
2021/04/26 10:32:13;;;;;;;2.08;1.42;;;;;;;8.01;42.37;98708.09;3735592;78;73357;-26
2021/04/26 10:37:26;;;;;;;2.47;1.70;;;;;;;8.17;43.17;98704.87;3749114;77;44034;-29
2021/04/26 10:42:34;;;;;;;3.17;1.60;;;;;;;8.32;43.11;98699.94;3771823;77;43687;-27
2021/04/26 10:47:42;;;;;;;2.10;1.42;;;;;;;8.28;41.74;98681.09;3776389;77;44028;-27
2021/04/26 10:52:53;;;;;;;3.95;1.50;;;;;;;8.34;43.29;98677.00;3780336;77;44047;-26
2021/04/26 10:58:02;;;;;;;1.97;1.37;;;;;;;8.39;42.80;98665.84;3778383;77;44068;-27
2021/04/26 11:03:34;;;;;;;4.10;1.60;;;;;;;8.65;43.52;98651.36;3769326;78;44008;-27
2021/04/26 11:08:43;;;;;;;2.98;1.55;;;;;;;8.92;42.90;98651.11;3703963;79;44096;-27
2021/04/26 11:13:55;;;;;;;1.90;1.50;;;;;;;9.07;43.01;98643.42;3771769;77;44161;-27
2021/04/26 11:19:08;;;;;;;2.70;1.50;;;;;;;9.04;43.75;98636.50;3791468;78;44076;-27
2021/04/26 11:24:16;;;;;;;1.82;1.45;;;;;;;8.74;43.61;98641.09;3639345;80;44110;-27
2021/04/26 11:29:21;;;;;;;4.08;1.60;;;;;;;9.50;43.04;98635.24;3801868;76;43499;-26
2021/04/26 11:34:27;;;;;;;3.62;1.52;;;;;;;9.61;43.40;98638.25;3803965;76;43361;-26
2021/04/26 11:39:34;;;;;;;3.10;1.60;;;;;;;9.56;42.19;98622.56;3805596;76;43714;-27
2021/04/26 11:44:42;;;;;;;2.30;1.75;;;;;;;9.87;42.60;98616.00;3806565;76;44050;-27
2021/04/26 11:49:50;;;;;;;3.60;1.92;;;;;;;9.90;41.27;98604.08;3804385;78;44008;-27
2021/04/26 11:55:08;;;;;;;5.67;1.65;;;;;;;10.01;42.79;98604.69;3806868;75;44045;-26
2021/04/26 12:00:19;;;;;;;2.95;1.75;;;;;;;10.09;41.95;98599.89;3807191;76;43701;-28
2021/04/26 12:05:27;;;;;;;1.82;1.67;;;;;;;10.40;42.34;98590.59;3805704;76;43412;-27
2021/04/26 12:10:39;;;;;;;3.08;1.72;;;;;;;10.23;42.73;98590.41;3805114;76;43874;-27
2021/04/26 12:15:47;;;;;;;3.87;1.65;;;;;;;10.49;41.80;98566.75;3804865;77;43656;-27
2021/04/26 12:20:53;;;;;;;2.30;1.60;;;;;;;10.85;41.65;98565.30;3808316;76;43347;-27
2021/04/26 12:26:00;;;;;;;3.20;1.62;;;;;;;10.63;39.84;98561.31;3804373;76;43404;-27
2021/04/26 12:31:06;;;;;;;1.85;1.42;;;;;;;10.98;40.35;98560.84;3807178;76;44172;-27
2021/04/26 12:36:14;;;;;;;5.92;1.70;;;;;;;10.68;39.16;98548.19;3804981;76;44120;-27
2021/04/26 12:41:20;;;;;;;3.22;1.60;;;;;;;10.39;39.82;98541.28;3776513;77;43308;-27
2021/04/26 12:46:26;;;;;;;3.45;1.70;;;;;;;10.35;38.54;98537.17;3774722;77;44012;-27
2021/04/26 12:51:34;;;;;;;4.47;1.50;;;;;;;10.62;39.79;98550.19;3773982;78;44029;-27
2021/04/26 12:56:57;;;;;;;2.90;1.52;;;;;;;10.79;39.24;98541.19;3775932;77;44198;-27
2021/04/26 13:02:04;;;;;;;3.45;1.60;;;;;;;10.53;39.95;98520.13;3773303;77;44804;-27
2021/04/26 13:07:11;;;;;;;3.08;1.60;;;;;;;11.14;38.88;98512.03;3768922;78;44431;-27
2021/04/26 13:12:28;;;;;;;2.65;1.50;;;;;;;11.04;39.13;98518.40;3777379;77;43315;-27
2021/04/26 13:17:36;;;;;;;3.62;1.87;;;;;;;11.29;37.31;98506.87;3774528;77;43613;-27
2021/04/26 13:22:42;;;;;;;3.92;1.90;;;;;;;10.97;39.38;98497.15;3772474;78;43711;-27
2021/04/26 13:27:50;;;;;;;1.57;1.47;;;;;;;11.87;38.33;98483.52;3777418;77;43597;-27
2021/04/26 13:32:57;;;;;;;3.60;1.70;;;;;;;12.21;37.52;98473.08;3774349;77;44026;-27
2021/04/26 13:38:03;;;;;;;3.98;1.70;;;;;;;12.69;37.27;98468.25;3778266;77;43686;-27
2021/04/26 13:43:10;;;;;;;4.20;1.67;;;;;;;12.07;35.90;98459.77;3804793;76;43404;-27
2021/04/26 13:48:17;;;;;;;4.67;1.67;;;;;;;12.25;38.28;98462.27;3807236;76;44112;-27
2021/04/26 13:53:24;;;;;;;4.35;1.67;;;;;;;12.45;35.17;98463.24;3804136;78;43116;-25
2021/04/26 13:58:30;;;;;;;2.87;1.45;;;;;;;12.83;36.58;98448.60;3804351;76;44007;-26
2021/04/26 14:03:37;;;;;;;3.83;1.60;;;;;;;11.98;37.75;98437.31;3802742;76;44366;-26
2021/04/26 14:14:21;;;;;;;5.30;1.67;;;;;;;13.43;35.35;98443.59;3804641;76;43996;-23
2021/04/26 14:19:27;;;;;;;1.95;1.60;;;;;;;13.38;35.10;98433.77;3792600;76;43449;-22
2021/04/26 14:24:34;;;;;;;3.72;2.08;;;;;;;12.18;36.65;98423.44;3805503;76;43371;-22
2021/04/26 14:29:41;;;;;;;2.35;1.60;;;;;;;13.75;35.08;98422.70;3796545;76;44039;-23
2021/04/26 14:34:47;;;;;;;2.22;1.50;;;;;;;13.37;33.20;98422.12;3790774;78;43204;-23
2021/04/26 14:39:53;;;;;;;2.87;1.50;;;;;;;12.58;33.70;98413.55;3787390;77;43628;-23
2021/04/26 14:44:59;;;;;;;2.30;1.85;;;;;;;12.58;35.52;98400.56;3778942;77;43657;-22
2021/04/26 14:50:07;;;;;;;3.25;1.55;;;;;;;13.45;33.48;98403.66;3766030;77;43586;-22
2021/04/26 14:55:15;;;;;;;2.40;1.60;;;;;;;13.26;33.91;98394.13;3775186;77;44054;-23
2021/04/26 15:00:23;;;;;;;1.45;1.20;;;;;;;13.21;33.90;98378.43;3775537;78;44047;-22
2021/04/26 15:05:29;;;;;;;4.03;1.60;;;;;;;13.59;33.95;98376.80;3775162;78;44151;-23
2021/04/26 15:10:35;;;;;;;2.47;1.55;;;;;;;14.11;33.29;98376.53;3774166;77;43837;-23
2021/04/26 15:15:44;;;;;;;3.52;1.60;;;;;;;14.26;33.22;98366.52;3774748;77;44007;-23
2021/04/26 15:20:52;;;;;;;2.83;1.80;;;;;;;14.76;33.29;98347.80;3774229;78;44060;-24
2021/04/26 15:25:58;;;;;;;3.33;1.55;;;;;;;14.64;33.16;98348.79;3774980;77;44063;-24
2021/04/26 15:31:06;;;;;;;3.85;1.87;;;;;;;13.62;31.73;98350.73;3774118;77;43912;-25
2021/04/26 15:36:12;;;;;;;3.08;1.62;;;;;;;13.50;33.01;98343.58;3774207;77;43123;-22
2021/04/26 15:41:18;;;;;;;1.65;1.55;;;;;;;13.21;33.13;98345.97;3776154;77;43427;-22
2021/04/26 15:46:26;;;;;;;4.28;1.80;;;;;;;13.35;33.42;98338.06;3773678;77;43368;-23
2021/04/26 15:51:34;;;;;;;5.03;1.70;;;;;;;13.75;31.81;98336.06;3772459;77;44022;-22
2021/04/26 15:56:40;;;;;;;1.98;1.70;;;;;;;13.90;32.44;98344.20;3773816;77;43730;-22
2021/04/26 16:01:47;;;;;;;2.30;1.90;;;;;;;13.89;31.76;98336.28;3774107;78;44074;-22
2021/04/26 16:06:53;;;;;;;4.08;1.65;;;;;;;13.06;35.17;98335.06;3771957;78;43747;-22
2021/04/26 16:11:59;;;;;;;3.62;1.80;;;;;;;13.73;32.61;98333.23;3774810;77;44032;-22
2021/04/26 16:17:07;;;;;;;2.45;1.57;;;;;;;13.70;33.27;98343.39;3770232;77;44122;-24
2021/04/26 16:22:14;;;;;;;2.20;1.50;;;;;;;13.46;33.29;98337.70;3771358;77;43972;-24
2021/04/26 16:27:20;;;;;;;2.67;1.35;;;;;;;13.64;32.24;98329.75;3767350;77;44088;-23
2021/04/26 16:32:29;;;;;;;2.75;1.60;;;;;;;13.63;32.25;98326.70;3774372;77;44037;-22
2021/04/26 16:37:38;;;;;;;2.65;1.60;;;;;;;13.45;31.43;98321.12;3762457;77;43093;-23
2021/04/26 16:42:45;;;;;;;2.25;1.60;;;;;;;13.26;31.79;98315.14;3799277;76;43312;-23
2021/04/26 16:47:52;;;;;;;3.00;1.52;;;;;;;13.62;32.36;98303.36;3802336;76;43980;-24
2021/04/26 16:53:00;;;;;;;3.20;1.77;;;;;;;12.73;34.43;98299.30;3804404;77;44032;-23
2021/04/26 16:58:06;;;;;;;2.58;1.98;;;;;;;12.55;33.96;98293.64;3798684;76;44548;-23
2021/04/26 17:03:13;;;;;;;2.27;1.70;;;;;;;12.63;34.04;98286.86;3804239;78;43223;-23
2021/04/26 17:08:20;;;;;;;3.92;1.70;;;;;;;12.09;34.58;98283.56;3802962;78;43676;-23
2021/04/26 17:13:26;;;;;;;3.62;1.92;;;;;;;11.59;35.59;98270.66;3804015;76;43474;-23
2021/04/26 17:18:32;;;;;;;4.67;1.70;;;;;;;11.45;34.97;98278.13;3797795;77;43446;-23
2021/04/26 17:23:39;;;;;;;3.45;2.02;;;;;;;11.24;35.44;98277.63;3796702;77;43407;-23
2021/04/26 17:28:46;;;;;;;2.95;2.22;;;;;;;10.70;36.02;98284.83;3797737;77;43338;-23
2021/04/26 17:33:53;;;;;;;3.75;2.20;;;;;;;10.52;36.36;98285.47;3793315;77;43077;-22
2021/04/26 17:38:59;;;;;;;3.70;2.20;;;;;;;9.92;37.16;98277.30;3790191;77;43311;-22
2021/04/26 17:44:07;;;;;;;2.80;2.00;;;;;;;9.53;37.19;98277.25;3821113;76;44034;-23
2021/04/26 17:49:13;;;;;;;2.98;1.65;;;;;;;9.31;37.61;98275.91;3819720;76;43694;-23
2021/04/26 17:54:19;;;;;;;2.58;1.92;;;;;;;8.91;38.22;98268.71;3822373;76;43380;-23
2021/04/26 17:59:25;;;;;;;4.58;2.15;;;;;;;8.69;39.13;98273.20;3819316;76;44070;-23
2021/04/26 18:04:31;;;;;;;2.08;1.60;;;;;;;8.41;39.63;98267.88;3823679;76;44022;-23
2021/04/26 18:09:37;;;;;;;3.05;1.70;;;;;;;8.08;40.04;98271.02;3818699;76;43365;-25
2021/04/26 18:14:43;;;;;;;2.27;1.80;;;;;;;7.88;40.62;98278.31;3822338;76;44154;-26
2021/04/26 18:19:48;;;;;;;5.40;1.72;;;;;;;7.71;40.84;98283.44;3822359;76;43710;-25
2021/04/26 18:24:54;;;;;;;1.85;1.57;;;;;;;7.45;41.63;98290.45;3821217;76;44508;-25
2021/04/26 18:30:00;;;;;;;3.35;2.12;;;;;;;7.29;41.61;98285.19;3817990;77;43685;-25
2021/04/26 18:35:09;;;;;;;3.62;3.08;;;;;;;7.04;41.92;98292.00;3821282;76;43364;-25
2021/04/26 18:40:16;;;;;;;3.27;1.98;;;;;;;6.88;42.45;98286.70;3815453;77;43391;-24
2021/04/26 18:45:26;;;;;;;2.52;2.02;;;;;;;6.64;42.96;98289.80;3772606;77;43677;-25
2021/04/26 18:50:30;;;;;;;4.15;1.90;;;;;;;6.50;43.17;98293.71;3772735;77;44065;-25
2021/04/26 18:55:36;;;;;;;3.25;1.85;;;;;;;6.35;43.66;98298.63;3770128;78;44066;-25
2021/04/26 19:00:43;;;;;;;5.17;2.00;;;;;;;6.27;43.64;98306.50;3773163;77;43670;-25
2021/04/26 19:05:49;;;;;;;4.90;2.75;;;;;;;6.19;43.80;98311.19;3771895;77;43718;-25
2021/04/26 19:10:55;;;;;;;6.75;3.47;;;;;;;6.04;44.11;98305.38;3773509;78;43666;-27
2021/04/26 19:16:01;;;;;;;4.28;2.17;;;;;;;6.00;44.72;98310.63;3772222;77;43703;-27
2021/04/26 19:21:08;;;;;;;3.42;2.00;;;;;;;5.93;45.58;98309.45;3773622;77;44086;-27
2021/04/26 19:26:14;;;;;;;4.27;2.40;;;;;;;5.75;46.33;98315.91;3772435;77;43707;-27
2021/04/26 19:31:19;;;;;;;2.95;2.05;;;;;;;5.60;46.78;98321.59;3772754;78;44877;-28
2021/04/26 19:36:25;;;;;;;3.47;1.90;;;;;;;5.50;46.58;98322.03;3771311;77;43632;-29
2021/04/26 19:41:34;;;;;;;4.78;2.08;;;;;;;5.47;47.19;98321.78;3777720;78;43327;-26
2021/04/26 19:46:40;;;;;;;2.90;1.70;;;;;;;5.43;47.28;98325.72;3803480;78;43043;-26
2021/04/26 19:51:46;;;;;;;5.00;1.87;;;;;;;5.32;46.91;98325.28;3803127;76;42655;-27
2021/04/26 19:56:53;;;;;;;2.40;1.72;;;;;;;5.23;47.74;98322.06;3800118;77;43573;-27
2021/04/26 20:01:58;;;;;;;7.10;2.00;;;;;;;5.09;48.73;98323.23;3804836;78;43782;-26
2021/04/26 20:07:04;;;;;;;3.20;2.00;;;;;;;4.79;50.66;98330.14;3797899;76;44152;-28
2021/04/26 20:12:11;;;;;;;2.93;1.77;;;;;;;4.59;50.58;98323.30;3805165;78;44029;-27
2021/04/26 20:17:16;;;;;;;3.33;2.07;;;;;;;4.58;50.59;98326.94;3802624;78;43317;-28
2021/04/26 20:22:22;;;;;;;3.37;1.87;;;;;;;4.58;50.75;98321.60;3804079;78;44047;-25
2021/04/26 20:27:28;;;;;;;3.43;1.70;;;;;;;4.58;50.39;98313.59;3803423;78;43686;-26
2021/04/26 20:32:37;;;;;;;3.15;1.95;;;;;;;4.48;51.34;98316.16;3803327;76;43483;-26
2021/04/26 20:37:43;;;;;;;3.27;1.90;;;;;;;4.38;51.70;98307.72;3799440;76;44002;-26
2021/04/26 20:42:50;;;;;;;5.15;2.02;;;;;;;4.34;51.51;98308.46;3793328;78;73289;-27
2021/04/26 20:47:56;;;;;;;5.33;2.10;;;;;;;4.28;51.67;98296.47;3770507;77;44119;-27
2021/04/26 20:53:04;;;;;;;4.15;2.10;;;;;;;4.22;51.68;98302.28;3771781;78;73701;-27
2021/04/26 20:58:09;;;;;;;5.83;1.92;;;;;;;4.09;52.45;98302.44;3771069;78;67921;-26
2021/04/26 21:03:15;;;;;;;2.67;1.60;;;;;;;3.98;53.00;98308.61;3773980;77;43410;-27
2021/04/26 21:08:21;;;;;;;4.20;1.90;;;;;;;3.98;52.78;98301.95;3772517;77;43721;-26
2021/04/26 21:13:27;;;;;;;2.30;2.00;;;;;;;3.91;52.49;98304.75;3773263;77;44261;-26
2021/04/26 21:18:33;;;;;;;5.37;2.10;;;;;;;3.91;52.65;98303.89;3772810;77;65261;-27
2021/04/26 21:23:38;;;;;;;4.80;2.10;;;;;;;3.87;52.82;98311.28;3774349;78;43448;-27
2021/04/26 21:28:44;;;;;;;4.67;1.70;;;;;;;3.83;53.14;98309.82;3773535;78;43535;-27
2021/04/26 21:33:50;;;;;;;5.73;1.80;;;;;;;3.79;53.19;98305.72;3773358;77;44037;-27
2021/04/26 21:38:56;;;;;;;2.33;1.90;;;;;;;3.67;53.86;98301.73;3774567;78;43339;-27
2021/04/26 21:44:02;;;;;;;4.23;2.07;;;;;;;3.59;54.11;98299.30;3767346;77;43453;-27
2021/04/26 21:49:07;;;;;;;2.60;1.70;;;;;;;3.61;53.41;98305.35;3773072;77;73566;-27
2021/04/26 21:54:13;;;;;;;5.23;1.80;;;;;;;3.57;53.89;98310.08;3773144;77;44376;-27
2021/04/26 21:59:19;;;;;;;3.20;1.80;;;;;;;3.48;54.33;98300.98;3774903;78;44138;-27
2021/04/26 22:04:25;;;;;;;2.67;1.53;;;;;;;3.43;54.50;98291.66;3773386;77;43633;-27
2021/04/26 22:09:30;;;;;;;5.43;1.93;;;;;;;3.41;54.09;98293.58;3773888;77;43715;-25
2021/04/26 22:14:36;;;;;;;2.83;1.47;;;;;;;3.35;54.01;98290.41;3771846;77;43711;-27
2021/04/26 22:19:42;;;;;;;2.20;1.50;;;;;;;3.34;53.36;98282.09;3770748;77;44124;-27
2021/04/26 22:24:48;;;;;;;2.70;1.70;;;;;;;3.32;53.98;98283.15;3773453;78;44035;-27
2021/04/26 22:29:53;;;;;;;2.70;1.30;;;;;;;3.24;54.42;98281.08;3771161;78;43439;-27
2021/04/26 22:34:59;;;;;;;4.90;1.50;;;;;;;3.16;54.29;98275.50;3772632;77;43719;-25
2021/04/26 22:40:09;;;;;;;4.27;2.03;;;;;;;3.16;54.18;98275.50;3772767;78;43710;-26
2021/04/26 22:45:16;;;;;;;1.83;1.60;;;;;;;3.11;54.40;98274.53;3803764;77;43524;-26
2021/04/26 22:50:23;;;;;;;2.60;1.57;;;;;;;3.04;54.78;98271.48;3827406;76;43706;-26
2021/04/26 22:55:31;;;;;;;3.10;2.03;;;;;;;2.93;55.24;98259.02;3827910;77;43677;-26
2021/04/26 23:00:39;;;;;;;2.60;1.60;;;;;;;2.85;55.94;98263.22;3824993;77;43751;-26
2021/04/26 23:05:45;;;;;;;3.60;1.40;;;;;;;2.77;56.27;98261.13;3827425;76;44006;-26
2021/04/26 23:10:51;;;;;;;4.03;1.60;;;;;;;2.72;56.20;98249.52;3829532;77;43330;-27
2021/04/26 23:15:57;;;;;;;3.73;1.50;;;;;;;2.68;56.39;98249.86;3827389;77;43296;-27
2021/04/26 23:21:04;;;;;;;4.00;1.60;;;;;;;2.59;56.85;98240.27;3820776;76;43006;-26
2021/04/26 23:26:10;;;;;;;2.53;1.60;;;;;;;2.50;57.63;98231.66;3826913;77;43392;-27
2021/04/26 23:31:16;;;;;;;2.33;1.30;;;;;;;2.48;57.20;98227.42;3827491;76;43532;-26
2021/04/26 23:36:22;;;;;;;3.17;1.50;;;;;;;2.42;57.36;98226.91;3827446;76;43787;-27
2021/04/26 23:41:28;;;;;;;2.93;1.50;;;;;;;2.36;57.15;98225.17;3826181;77;44070;-27
2021/04/26 23:46:34;;;;;;;4.03;1.50;;;;;;;2.28;58.01;98218.63;3786781;77;43128;-26
2021/04/26 23:51:40;;;;;;;3.30;1.60;;;;;;;2.24;57.98;98209.67;3769567;77;43405;-26
2021/04/26 23:56:46;;;;;;;3.13;1.60;;;;;;;2.22;57.98;98208.47;3771190;77;44598;-27
